Observations for CHRISTCHURCH IN, New Zealand (NZCH)

NZCH 140700Z AUTO 21008KT 9999 OVC020/// 09/07 Q0994
NZCH 140700Z AUTO 21008KT 9999 OVC020/// 09/07 Q0994 NOSIG
NZCH 140330Z AUTO 21006KT 9999 BKN015/// BKN100/// 10/08 Q0993 TEMPO BKN013 
NZCH 140300Z AUTO 18006KT 9999 OVC100/// 10/07 Q0993 NOSIG  
NZCH 140230Z AUTO 19006KT 9999 BKN100/// 10/07 Q0993 NOSIG  
NZCH 140200Z AUTO 19006KT 9999 SCT090/// 09/07 Q0993 NOSIG  
NZCH 140130Z AUTO 21005KT 9999 BKN100/// 09/07 Q0994 NOSIG  
NZCH 140100Z AUTO 22006KT 180V260 9999 OVC100/// 09/07 Q0994 NOSIG  
NZCH 140030Z AUTO 22006KT 200V260 9999 SCT005/// 08/07 Q0995 NOSIG  
NZCH 140000Z AUTO 22005KT 190V250 9999 SCT005/// 08/06 Q0995 NOSIG  
NZCH 132330Z AUTO 19008KT 9999 FEW095/// 08/06 Q0995 NOSIG  
NZCH 132300Z AUTO 20005KT 170V240 9999 NCD 09/06 Q0996 NOSIG
NZCH 132230Z AUTO 21005KT 170V240 9999 NCD 09/06 Q0995 NOSIG
NZCH 132200Z AUTO 21007KT 9999 NCD 09/05 Q0996 NOSIG
NZCH 132130Z AUTO 21005KT 9999 NCD 08/05 Q0996 NOSIG
NZCH 132100Z AUTO 23004KT 9999 NCD 05/05 Q0996 NOSIG
NZCH 132030Z AUTO 24004KT 9999 NCD 04/04 Q0996 NOSIG
NZCH 132000Z AUTO 25002KT 9999 NCD 04/03 Q0996 NOSIG
NZCH 131930Z AUTO 25003KT 9999 NCD 05/04 Q0996 NOSIG
NZCH 131900Z AUTO 33001KT 9999 NCD 05/04 Q0995 NOSIG
NZCH 131830Z AUTO 31003KT 9999 NCD 06/04 Q0996 NOSIG
NZCH 131800Z AUTO 33003KT 9999 NCD 07/04 Q0995 NOSIG
NZCH 131730Z AUTO 04004KT 9999 NCD 07/04 Q0995 NOSIG
NZCH 131700Z AUTO 04003KT 9999 NCD 08/04 Q0995 NOSIG
NZCH 131630Z AUTO 11004KT 9999 NCD 08/04 Q0995 NOSIG
NZCH 131600Z AUTO 05002KT 9999 NCD 08/04 Q0995 NOSIG
NZCH 131530Z AUTO 08006KT 9999 NCD 09/04 Q0996 NOSIG
NZCH 131500Z AUTO 10006KT 9999 NCD 08/05 Q0996 NOSIG
NZCH 131430Z AUTO 10006KT 9999 NCD 09/05 Q0997 NOSIG
NZCH 131400Z AUTO 09007KT 9999 NCD 09/05 Q0997 NOSIG
NZCH 131330Z AUTO 07003KT 9999 NCD 07/05 Q0997 NOSIG
NZCH 131300Z AUTO 11004KT 9999 NCD 06/04 Q0997 NOSIG
NZCH 131230Z AUTO 08003KT 9999 NCD 07/05 Q0997  
NZCH 131200Z AUTO 08004KT 030V120 9999 NCD 07/05 Q0998 NOSIG
NZCH 131130Z AUTO 08004KT 040V110 9999 NCD 08/05 Q0998 NOSIG
NZCH 131100Z AUTO 07005KT 020V100 9999 NCD 08/04 Q0998 NOSIG
NZCH 131030Z AUTO 04007KT 020V080 9999 NCD 08/05 Q0998 NOSIG
NZCH 131000Z AUTO 05002KT 9999 NCD 06/04 Q0998 NOSIG
NZCH 130930Z AUTO 08004KT 9999 NCD 07/06 Q0998 NOSIG
NZCH 130900Z AUTO 04004KT 010V070 9999 NCD 07/05 Q0999 NOSIG
NZCH 130830Z AUTO 05003KT 9999 NCD 07/04 Q0999 NOSIG
NZCH 130800Z AUTO 14003KT 9999 NCD 07/05 Q0999 NOSIG